Flight Track Log - Related Links

Times and Time Zones

All times are in EDT time to prevent confusion due to time zone crossing. See the WBR2634 flight status page for this flight to view local times or setup timezone preferences in your user account.

Time Position Orientation Groundspeed Altitude Reporting Facility
EDT Latitude Longitude Course Direction KTS MPH feet Rate Location/Type
Mon 05:44:06 PM 40.7714 -91.0658 73° East 115 132 2,500  Level Chicago Center
Mon 05:45:08 PM 40.7806 -91.0189 76° East 130 150 3,300 774 Climbing Chicago Center
Mon 05:46:00 PM 40.8667 -90.7600 90° East  Level FlightAware Approximate
Mon 05:46:10 PM 40.7936 -90.9708 70° East 134 154 4,100  Level Chicago Center
Mon 05:47:00 PM 40.8794 -90.6990 72° East  Level FlightAware Approximate
Mon 05:47:12 PM 40.8075 -90.9206 70° East 141 162 4,700  Level Chicago Center
Mon 05:48:00 PM 40.8938 -90.6382 73° East  Level FlightAware Approximate
Mon 05:48:15 PM 40.8250 -90.8578 70° East 149 171 5,500  Level Chicago Center
Mon 05:49:00 PM 40.9080 -90.5772 73° East  Level FlightAware Approximate
Mon 05:49:17 PM 40.8400 -90.8033 70° East 156 180 6,200  Level Chicago Center
Mon 05:50:19 PM 40.8556 -90.7461 70° East 163 188 6,800 532 Climbing Chicago Center
Mon 05:51:21 PM 40.8719 -90.6872 70° East 169 194 7,300 532 Climbing Chicago Center
Mon 05:52:23 PM 40.8869 -90.6289 71° East 169 194 7,900 387 Climbing Chicago Center
Mon 05:53:25 PM 40.9025 -90.5664 72° East 176 203 8,100 48 Climbing Chicago Center
Mon 05:54:27 PM 40.9256 -90.4858 69° East 191 220 8,000 242 Descending Chicago Center
Mon 05:55:29 PM 40.9433 -90.4206 70° East 190 219 8,600 484 Climbing Chicago Center
Mon 05:56:31 PM 40.9586 -90.3589 72° East 179 206 9,000 194 Climbing Chicago Center
Mon 05:57:33 PM 40.9758 -90.2933 71° East 184 212 9,000 48 Level Chicago Center
Mon 05:58:35 PM 40.9967 -90.2239 68° East 198 228 9,100  Climbing Chicago Center
Mon 05:59:37 PM 41.0169 -90.1572 68° East 197 227 9,000 -97 Descending Chicago Center
Mon 06:00:39 PM 41.0322 -90.0931 72° East 188 216 8,900  Descending Chicago Center
Mon 06:01:41 PM 41.0506 -90.0175 72° East 181 208 9,000 48 Climbing Chicago Center
Mon 06:02:44 PM 41.0656 -89.9539 73° East 180 207 9,000  Level Chicago Center
Mon 06:03:46 PM 41.0831 -89.8914 70° East 180 207 9,000 -48 Level Chicago Center
Mon 06:04:48 PM 41.0994 -89.8283 71° East 180 207 8,900  Descending Chicago Center
Mon 06:05:50 PM 41.1153 -89.7656 71° East 179 206 9,000 48 Climbing Chicago Center
Mon 06:06:52 PM 41.1325 -89.7033 70° East 179 206 9,000 -48 Level Chicago Center
Mon 06:07:54 PM 41.1483 -89.6414 71° East 178 205 8,900 -48 Descending Chicago Center
Mon 06:08:56 PM 41.1694 -89.5672 69° East 179 206 8,900 48 Level Chicago Center
Mon 06:09:58 PM 41.1958 -89.5133 57° Northeast 175 201 9,000 48 Climbing Chicago Center
Mon 06:11:00 PM 41.2222 -89.4578 58° Northeast 176 203 9,000 -48 Level Chicago Center
Mon 06:12:02 PM 41.2481 -89.4017 59° Northeast 178 205 8,900  Descending Chicago Center
Mon 06:13:04 PM 41.2739 -89.3464 58° Northeast 176 203 9,000 48 Climbing Chicago Center
Mon 06:14:06 PM 41.2989 -89.2892 60° Northeast 178 205 9,000 -48 Level Chicago Center
Mon 06:15:08 PM 41.3328 -89.2256 55° Northeast 177 204 8,900  Descending Chicago Center
Mon 06:16:10 PM 41.3622 -89.1694 55° Northeast 176 203 9,000  Climbing Chicago Center
Mon 06:17:13 PM 41.3875 -89.1133 59° Northeast 178 205 8,900 -48 Descending Chicago Center
Mon 06:18:15 PM 41.4131 -89.0569 59° Northeast 180 207 8,900 48 Level Chicago Center
Mon 06:19:17 PM 41.4392 -89.0044 56° Northeast 175 201 9,000  Climbing Chicago Center
Mon 06:20:19 PM 41.4633 -88.9478 60° Northeast 176 203 8,900 -145 Descending Chicago Center
Mon 06:21:21 PM 41.4917 -88.8781 62° Northeast 180 207 8,700 -242 Descending Chicago Center
Mon 06:22:23 PM 41.5192 -88.8225 57° Northeast 181 208 8,400 -387 Descending Chicago Center
Mon 06:23:25 PM 41.5450 -88.7647 59° Northeast 183 211 7,900 -242 Descending Chicago Center
Mon 06:24:27 PM 41.5689 -88.7044 62° Northeast 185 213 7,900  Level Chicago Center
Mon 06:25:29 PM 41.5961 -88.6525 55° Northeast 175 201 7,900  Level Chicago Center
Mon 06:26:32 PM 41.6172 -88.5953 64° Northeast 173 199 7,900  Level Chicago Center
Mon 06:27:34 PM 41.6417 -88.5233 66° East 177 204 7,900 48 Level Chicago Center
Mon 06:28:36 PM 41.6622 -88.4664 64° Northeast 173 199 8,000 48 Climbing Chicago Center
Mon 06:29:38 PM 41.6822 -88.4072 66° East 174 200 8,000  Level Chicago Center
Mon 06:30:40 PM 41.7031 -88.3494 64° Northeast 174 200 8,000 -194 Level Chicago Center
Mon 06:31:42 PM 41.7322 -88.2994 52° Northeast 172 198 7,600 -435 Descending Chicago Center
Mon 06:32:44 PM 41.7647 -88.2494 49° Northeast 177 204 7,100 -290 Descending Chicago Center
Mon 06:33:46 PM 41.8036 -88.1886 49° Northeast 179 206 7,000  Descending Chicago Center
Mon 06:34:48 PM 41.8394 -88.1544 35° Northeast 175 201 7,100 48 Climbing Chicago Center
Mon 06:35:50 PM 41.8839 -88.1586 356° North 163 188 7,100  Level Chicago Center
Mon 06:36:52 PM 41.9306 -88.1611 358° North 166 191 7,100  Level Chicago Center
Mon 06:37:54 PM 41.9808 -88.1622 359° North 178 205 7,100 -484 Level Chicago Center
Mon 06:38:56 PM 42.0372 -88.1769 349° North 175 201 6,100 -871 Descending Chicago Center
Mon 06:39:58 PM 42.0847 -88.1956 344° North 179 206 5,300 -774 Descending Chicago Center
Mon 06:41:00 PM 42.1078 -88.1361 62° Northeast 193 222 4,500 -625 Descending Chicago Center
Mon 06:41:34 PM 42.1000 -88.1000 106° East 164 189 4,300 -540 Descending Chicago TRACON
Mon 06:42:40 PM 42.0833 -88.0333 109° East 156 180 3,600 -952 Descending Chicago TRACON
Mon 06:43:40 PM 42.0500 -88.0000 143° Southeast 148 170 2,300 -1,000 Descending Chicago TRACON
Mon 06:44:34 PM 42.0333 -87.9667 124° Southeast 125 144 1,700 -700 Descending Chicago TRACON
Mon 06:45:40 PM 42.0000 -87.9333 143° Southeast 115 132 900 -727 Descending Chicago TRACON
Mon 06:47:00 PM 41.9817 -87.9067 111° Southeast  Level Estimated
Mon 06:54:00 PM 41.9817 -87.9067 111° Southeast  Level Estimated

Login

Don't have an account? Register now (free) for customized features, flight alerts, and more!